createdAt,value
2018-09-18T00:00:48.374Z,15.60
2018-09-18T00:03:16.568Z,11.93
2018-09-18T00:05:44.738Z,15.37
2018-09-18T00:08:12.923Z,18.70
2018-09-18T00:10:41.116Z,11.27
2018-09-18T00:13:09.339Z,17.60
2018-09-18T00:15:37.619Z,17.60
2018-09-18T00:18:05.849Z,22.40
2018-09-18T00:20:34.155Z,13.60
2018-09-18T00:23:02.365Z,13.60
2018-09-18T00:25:30.533Z,13.53
2018-09-18T00:27:58.757Z,17.17
2018-09-18T00:30:26.950Z,11.50
2018-09-18T00:32:55.220Z,12.57
2018-09-18T00:35:23.422Z,11.50
2018-09-18T00:37:51.581Z,15.50
2018-09-18T00:40:19.868Z,15.07
2018-09-18T00:42:48.079Z,11.20
2018-09-18T00:45:16.269Z,11.40
2018-09-18T00:47:44.445Z,19.90
2018-09-18T00:50:12.615Z,11.70
2018-09-18T00:52:40.786Z,17.13
2018-09-18T00:55:08.912Z,16.03
2018-09-18T00:57:37.017Z,13.10
2018-09-18T01:00:05.165Z,17.20
2018-09-18T01:02:33.317Z,15.67
2018-09-18T01:05:01.429Z,14.83
2018-09-18T01:07:29.553Z,12.80
2018-09-18T01:09:57.937Z,11.90
2018-09-18T01:12:26.151Z,16.33
2018-09-18T01:14:54.300Z,14.13
2018-09-18T01:17:22.445Z,15.17
2018-09-18T01:19:50.533Z,23.13
2018-09-18T01:22:18.809Z,18.17
2018-09-18T01:24:47.003Z,16.77
2018-09-18T01:27:15.254Z,17.03
2018-09-18T01:29:43.788Z,22.40
2018-09-18T01:32:11.987Z,16.03
2018-09-18T01:34:40.155Z,33.57
2018-09-18T01:37:08.436Z,19.03
2018-09-18T01:39:36.635Z,18.57
2018-09-18T01:42:04.870Z,24.30
2018-09-18T01:44:33.153Z,29.37
2018-09-18T01:47:01.479Z,17.83
2018-09-18T01:49:29.729Z,24.80
2018-09-18T01:51:58.065Z,17.00
2018-09-18T01:54:26.289Z,17.20
2018-09-18T01:56:54.492Z,18.63
2018-09-18T01:59:22.824Z,13.80
2018-09-18T02:01:51.054Z,12.20
2018-09-18T02:04:19.381Z,16.00
2018-09-18T02:06:47.693Z,16.40
2018-09-18T02:09:16.042Z,17.23
2018-09-18T02:11:44.154Z,15.70
2018-09-18T02:14:12.516Z,22.00
2018-09-18T02:16:40.758Z,29.17
2018-09-18T02:19:09.007Z,25.80
2018-09-18T02:21:37.247Z,14.83
2018-09-18T02:24:05.517Z,20.10
2018-09-18T02:26:33.823Z,19.83
2018-09-18T02:29:02.120Z,18.53
2018-09-18T02:31:30.419Z,15.90
2018-09-18T02:33:58.682Z,14.00
2018-09-18T02:36:26.949Z,20.43
2018-09-18T02:38:55.298Z,11.90
2018-09-18T02:41:23.568Z,21.63
2018-09-18T02:43:51.896Z,15.30
2018-09-18T02:46:20.230Z,14.10
2018-09-18T02:48:48.539Z,11.00
2018-09-18T02:51:16.866Z,14.90
2018-09-18T02:53:45.237Z,19.70
2018-09-18T02:56:13.526Z,12.53
2018-09-18T02:58:41.747Z,21.87
2018-09-18T03:01:10.171Z,14.97
2018-09-18T03:03:38.422Z,14.73
2018-09-18T03:06:06.722Z,12.73
2018-09-18T03:08:34.958Z,15.80
2018-09-18T03:11:03.261Z,14.93
2018-09-18T03:13:31.394Z,13.30
2018-09-18T03:15:59.642Z,14.73
2018-09-18T03:18:27.975Z,18.30
2018-09-18T03:20:56.213Z,22.93
2018-09-18T03:23:24.408Z,19.53
2018-09-18T03:25:52.576Z,14.57
2018-09-18T03:28:20.816Z,23.43
2018-09-18T03:30:49.094Z,15.97
2018-09-18T03:33:17.382Z,14.47
2018-09-18T03:35:46.017Z,14.50
2018-09-18T03:38:14.164Z,15.97
2018-09-18T03:40:42.378Z,13.53
2018-09-18T03:43:10.620Z,12.40
2018-09-18T03:45:38.939Z,16.50
2018-09-18T03:48:07.137Z,12.50
2018-09-18T03:50:35.241Z,11.30
2018-09-18T03:53:03.389Z,10.27
2018-09-18T03:55:31.505Z,11.67
2018-09-18T03:57:59.738Z,15.47
2018-09-18T04:00:28.001Z,16.93
2018-09-18T04:02:56.277Z,17.37
2018-09-18T04:05:24.576Z,14.77
2018-09-18T04:07:52.846Z,23.40
2018-09-18T04:10:21.157Z,11.30
2018-09-18T04:12:49.443Z,20.17
2018-09-18T04:15:17.760Z,15.97
2018-09-18T04:17:46.103Z,12.50
2018-09-18T04:20:14.392Z,12.20
2018-09-18T04:22:42.673Z,19.23
2018-09-18T04:25:10.954Z,21.43
2018-09-18T04:27:39.539Z,12.80
2018-09-18T04:30:07.788Z,12.43
2018-09-18T04:32:36.055Z,16.37
2018-09-18T04:35:04.321Z,11.07
2018-09-18T04:37:32.467Z,10.80
2018-09-18T04:40:00.635Z,16.23
2018-09-18T04:42:28.827Z,11.67
2018-09-18T04:44:57.009Z,11.80
2018-09-18T04:47:25.284Z,15.07
2018-09-18T04:49:53.517Z,12.77
2018-09-18T04:52:21.685Z,13.20
2018-09-18T04:54:49.974Z,16.50
2018-09-18T04:57:18.276Z,17.13
2018-09-18T04:59:46.606Z,14.07
2018-09-18T05:02:14.920Z,16.27
2018-09-18T05:04:43.185Z,15.17
2018-09-18T05:07:11.489Z,16.40
2018-09-18T05:09:39.701Z,17.43
2018-09-18T05:12:09.005Z,14.63
2018-09-18T05:14:37.116Z,21.10
2018-09-18T05:17:05.299Z,21.53
2018-09-18T05:19:33.551Z,12.20
2018-09-18T05:22:01.656Z,13.43
2018-09-18T05:24:29.826Z,11.50
2018-09-18T05:26:57.932Z,14.60
2018-09-18T05:29:26.104Z,18.93
2018-09-18T05:31:54.261Z,14.27
2018-09-18T05:34:22.555Z,18.50
2018-09-18T05:36:50.734Z,19.23
2018-09-18T05:39:18.940Z,10.67
2018-09-18T05:41:47.616Z,15.37
2018-09-18T05:44:15.970Z,20.03
2018-09-18T05:46:44.337Z,14.07
2018-09-18T05:49:12.733Z,13.73
2018-09-18T05:51:41.675Z,19.43
2018-09-18T05:54:09.963Z,13.67
2018-09-18T05:56:38.614Z,13.77
2018-09-18T05:59:06.833Z,17.87
2018-09-18T06:01:35.012Z,17.00
2018-09-18T06:04:03.276Z,25.20
2018-09-18T06:06:31.947Z,17.33
2018-09-18T06:09:00.144Z,14.00
2018-09-18T06:11:28.361Z,14.00
2018-09-18T06:13:56.479Z,11.90
2018-09-18T06:16:25.756Z,12.13
2018-09-18T06:18:54.323Z,12.53
2018-09-18T06:21:22.532Z,16.47
2018-09-18T06:23:52.815Z,18.93
2018-09-18T06:26:20.970Z,18.20
2018-09-18T06:28:49.309Z,14.43
2018-09-18T06:31:17.576Z,15.70
2018-09-18T06:33:45.816Z,13.13
2018-09-18T06:36:16.297Z,11.50
2018-09-18T06:38:44.980Z,16.07
2018-09-18T06:41:13.721Z,11.27
2018-09-18T06:43:41.908Z,11.63
2018-09-18T06:46:10.163Z,11.47
2018-09-18T06:48:38.438Z,12.60
2018-09-18T06:51:06.650Z,11.03
2018-09-18T06:53:34.846Z,10.90
2018-09-18T06:56:02.998Z,10.83
2018-09-18T06:58:31.291Z,10.20
2018-09-18T07:01:03.355Z,12.60
2018-09-18T07:03:31.554Z,10.37
2018-09-18T07:05:59.737Z,9.40
2018-09-18T07:08:27.852Z,9.20
2018-09-18T07:10:59.282Z,9.13
2018-09-18T07:13:27.568Z,8.80
2018-09-18T07:15:55.959Z,10.20
2018-09-18T07:18:24.120Z,9.53
2018-09-18T07:20:52.298Z,8.70
2018-09-18T07:23:20.528Z,10.40
2018-09-18T07:25:48.691Z,9.27
2018-09-18T07:28:17.292Z,9.90
2018-09-18T07:30:45.521Z,15.83
2018-09-18T07:33:13.685Z,12.33
2018-09-18T07:35:41.866Z,11.33
2018-09-18T07:38:10.051Z,10.30
2018-09-18T07:40:38.335Z,8.10
2018-09-18T07:43:06.733Z,10.33
2018-09-18T07:45:34.907Z,11.53
2018-09-18T07:48:03.175Z,9.97
2018-09-18T07:50:31.420Z,11.93
2018-09-18T07:52:59.693Z,10.70
2018-09-18T07:55:27.910Z,7.97
2018-09-18T07:57:56.211Z,21.53
2018-09-18T08:00:25.536Z,9.30
2018-09-18T08:02:53.744Z,14.90
2018-09-18T08:05:21.868Z,10.80
2018-09-18T08:07:50.048Z,10.47
2018-09-18T08:10:18.169Z,7.30
2018-09-18T08:12:46.381Z,11.67
2018-09-18T08:15:14.558Z,9.53
2018-09-18T08:17:42.735Z,7.77
2018-09-18T08:20:10.938Z,13.90
2018-09-18T08:22:39.057Z,10.03
2018-09-18T08:25:07.266Z,5.90
2018-09-18T08:27:35.307Z,6.07
2018-09-18T08:30:03.489Z,7.33
2018-09-18T08:32:31.720Z,5.73
2018-09-18T08:34:59.856Z,5.00
2018-09-18T08:37:28.043Z,6.13
2018-09-18T08:39:56.321Z,7.10
2018-09-18T08:42:24.431Z,6.00
2018-09-18T08:44:52.680Z,5.17
2018-09-18T08:47:20.877Z,6.30
2018-09-18T08:49:49.254Z,5.50
2018-09-18T08:52:17.531Z,6.50
2018-09-18T08:54:45.711Z,5.03
2018-09-18T08:57:13.959Z,7.43
2018-09-18T08:59:42.355Z,5.10
2018-09-18T09:02:10.939Z,4.37
2018-09-18T09:04:39.726Z,4.43
2018-09-18T09:07:08.034Z,4.80
2018-09-18T09:09:37.455Z,3.60
2018-09-18T09:12:06.365Z,5.00
2018-09-18T09:14:35.337Z,5.37
2018-09-18T09:17:06.273Z,4.67
2018-09-18T09:19:35.296Z,13.33
2018-09-18T09:22:03.904Z,8.80
2018-09-18T09:24:32.611Z,5.03
2018-09-18T09:27:01.769Z,5.33
2018-09-18T09:29:30.238Z,7.13
2018-09-18T09:31:58.909Z,4.50
2018-09-18T09:34:27.100Z,6.00
2018-09-18T09:36:56.496Z,4.53
2018-09-18T09:39:24.712Z,4.83
2018-09-18T09:41:52.986Z,6.73
2018-09-18T09:44:21.253Z,5.20
2018-09-18T09:46:49.495Z,8.67
2018-09-18T09:49:17.724Z,4.50
2018-09-18T09:51:45.947Z,3.97
2018-09-18T09:54:14.226Z,4.90
2018-09-18T09:56:42.515Z,4.60
2018-09-18T09:59:10.707Z,5.00
2018-09-18T10:01:43.009Z,7.83
2018-09-18T10:04:11.516Z,4.20
2018-09-18T10:06:39.937Z,5.57
2018-09-18T10:09:09.729Z,4.67
2018-09-18T10:11:38.057Z,8.43
2018-09-18T10:14:06.254Z,5.33
2018-09-18T10:16:34.764Z,4.63
2018-09-18T10:19:03.419Z,6.17
2018-09-18T10:21:31.681Z,3.97
2018-09-18T10:24:00.189Z,4.03
2018-09-18T10:26:28.739Z,4.80
2018-09-18T10:28:56.749Z,4.20
2018-09-18T10:31:25.247Z,5.10
2018-09-18T10:33:53.667Z,4.47
2018-09-18T10:36:22.240Z,5.20
2018-09-18T10:38:50.751Z,6.83
2018-09-18T10:41:19.259Z,4.03
2018-09-18T10:43:47.856Z,4.73
2018-09-18T10:46:16.205Z,5.33
2018-09-18T10:48:50.120Z,4.03
2018-09-18T10:51:18.877Z,6.30
2018-09-18T10:53:47.143Z,4.60
2018-09-18T10:56:16.089Z,4.00
2018-09-18T10:58:44.618Z,8.10
2018-09-18T11:01:13.119Z,4.10
2018-09-18T11:03:41.325Z,7.83
2018-09-18T11:06:09.983Z,6.00
2018-09-18T11:08:38.375Z,3.73
2018-09-18T11:11:07.064Z,4.03
2018-09-18T11:13:35.477Z,5.67
2018-09-18T11:16:03.912Z,5.10
2018-09-18T11:18:32.118Z,4.37
2018-09-18T11:21:00.546Z,9.47
2018-09-18T11:23:28.800Z,6.10
2018-09-18T11:25:57.122Z,8.23
2018-09-18T11:28:25.204Z,8.30
2018-09-18T11:30:53.297Z,9.17
2018-09-18T11:33:21.344Z,6.13
2018-09-18T11:35:49.436Z,5.57
2018-09-18T11:38:17.543Z,3.83
2018-09-18T11:40:45.714Z,4.13
2018-09-18T11:43:13.783Z,3.73
2018-09-18T11:45:41.909Z,4.10
2018-09-18T11:48:09.943Z,4.43
2018-09-18T11:50:38.009Z,4.10
2018-09-18T11:53:06.084Z,4.40
2018-09-18T11:55:34.165Z,3.50
2018-09-18T11:58:02.233Z,4.03
2018-09-18T12:00:30.405Z,3.77
2018-09-18T12:02:58.541Z,5.10
2018-09-18T12:05:26.539Z,3.03
2018-09-18T12:07:54.645Z,4.00
2018-09-18T12:10:22.703Z,6.57
2018-09-18T12:12:50.793Z,6.90
2018-09-18T12:15:18.909Z,14.13
2018-09-18T12:17:49.062Z,5.00
2018-09-18T12:20:17.135Z,5.80
2018-09-18T12:22:45.271Z,6.10
2018-09-18T12:25:13.855Z,4.67
2018-09-18T12:27:41.970Z,3.10
2018-09-18T12:30:10.040Z,8.63
2018-09-18T12:32:38.224Z,3.00
2018-09-18T12:35:06.363Z,4.53
2018-09-18T12:37:34.433Z,8.80
2018-09-18T12:40:02.530Z,3.83
2018-09-18T12:42:30.704Z,3.90
2018-09-18T12:44:58.706Z,9.60
2018-09-18T12:47:26.800Z,5.30
2018-09-18T12:49:55.136Z,2.63
2018-09-18T12:52:22.982Z,6.13
2018-09-18T12:54:51.057Z,7.03
2018-09-18T12:57:19.173Z,5.33
2018-09-18T12:59:47.316Z,3.77
2018-09-18T13:02:16.327Z,3.13
2018-09-18T13:04:44.375Z,4.40
2018-09-18T13:07:12.443Z,4.93
2018-09-18T13:09:40.535Z,4.47
2018-09-18T13:12:08.622Z,4.97
2018-09-18T13:14:36.668Z,3.20
2018-09-18T13:17:04.788Z,6.60
2018-09-18T13:19:32.887Z,4.87
2018-09-18T13:22:00.951Z,4.10
2018-09-18T13:24:29.037Z,8.73
2018-09-18T13:26:57.121Z,4.20
2018-09-18T13:29:25.216Z,2.83
2018-09-18T13:31:53.352Z,5.10
2018-09-18T13:34:21.445Z,6.20
2018-09-18T13:36:49.524Z,3.70
2018-09-18T13:39:17.615Z,3.60
2018-09-18T13:41:45.881Z,4.50
2018-09-18T13:44:13.990Z,4.00
2018-09-18T13:46:42.081Z,3.73
2018-09-18T13:49:10.226Z,6.20
2018-09-18T13:51:38.361Z,4.30
2018-09-18T13:54:06.458Z,5.60
2018-09-18T13:56:34.557Z,4.03
2018-09-18T13:59:02.689Z,5.50
2018-09-18T14:01:30.885Z,9.63
2018-09-18T14:03:59.114Z,3.83
2018-09-18T14:06:27.797Z,4.37
2018-09-18T14:08:56.191Z,7.40
2018-09-18T14:11:24.450Z,3.70
2018-09-18T14:13:52.612Z,3.97
2018-09-18T14:16:21.086Z,4.20
2018-09-18T14:18:49.511Z,4.23
2018-09-18T14:21:18.818Z,7.87
2018-09-18T14:23:47.108Z,5.03
2018-09-18T14:26:15.282Z,7.57
2018-09-18T14:28:43.264Z,5.90
2018-09-18T14:31:11.369Z,11.67
2018-09-18T14:33:39.469Z,11.07
2018-09-18T14:36:07.615Z,5.70
2018-09-18T14:38:35.893Z,4.80
2018-09-18T14:41:03.982Z,12.20
2018-09-18T14:43:32.064Z,4.70
2018-09-18T14:46:00.185Z,7.63
2018-09-18T14:48:28.306Z,5.33
2018-09-18T14:50:56.415Z,7.37
2018-09-18T14:53:24.509Z,16.13
2018-09-18T14:55:52.573Z,11.67
2018-09-18T14:58:20.661Z,5.60
2018-09-18T15:00:48.837Z,6.77
2018-09-18T15:03:16.937Z,7.93
2018-09-18T15:05:45.012Z,5.70
2018-09-18T15:08:13.086Z,5.10
2018-09-18T15:10:41.176Z,7.50
2018-09-18T15:13:09.279Z,4.50
2018-09-18T15:15:37.663Z,6.90
2018-09-18T15:18:05.682Z,5.27
2018-09-18T15:20:33.765Z,6.37
2018-09-18T15:23:01.880Z,5.60
2018-09-18T15:25:29.925Z,11.50
2018-09-18T15:27:58.115Z,5.93
2018-09-18T15:30:26.154Z,5.60
2018-09-18T15:32:54.231Z,8.10
2018-09-18T15:35:22.299Z,7.33
2018-09-18T15:37:50.363Z,6.53
2018-09-18T15:40:18.497Z,12.53
2018-09-18T15:42:46.596Z,7.80
2018-09-18T15:45:14.684Z,9.50
2018-09-18T15:47:42.745Z,8.07
2018-09-18T15:50:10.828Z,7.00
2018-09-18T15:52:38.872Z,4.50
2018-09-18T15:55:06.987Z,8.20
2018-09-18T15:57:34.927Z,7.13
2018-09-18T16:00:02.937Z,5.90
2018-09-18T16:02:30.937Z,4.70
2018-09-18T16:04:58.945Z,25.90
2018-09-18T16:07:26.936Z,9.80
2018-09-18T16:09:55.016Z,17.03
2018-09-18T16:12:22.973Z,8.27
2018-09-18T16:14:51.061Z,6.87
2018-09-18T16:17:19.140Z,4.33
2018-09-18T16:19:47.212Z,6.37
2018-09-18T16:22:15.280Z,9.83
2018-09-18T16:24:43.407Z,8.90
2018-09-18T16:27:11.539Z,7.93
2018-09-18T16:29:39.644Z,11.40
2018-09-18T16:32:07.808Z,14.53
2018-09-18T16:34:36.288Z,19.30
2018-09-18T16:37:04.631Z,14.17
2018-09-18T16:39:32.969Z,17.53
2018-09-18T16:42:01.077Z,24.10
2018-09-18T16:44:29.177Z,22.40
2018-09-18T16:46:57.560Z,12.70
2018-09-18T16:49:25.608Z,8.10
2018-09-18T16:51:53.712Z,4.43
2018-09-18T16:54:22.109Z,9.47
2018-09-18T16:56:50.248Z,9.60
2018-09-18T16:59:18.543Z,11.70
2018-09-18T17:01:46.776Z,11.00
2018-09-18T17:04:15.068Z,10.27
2018-09-18T17:06:43.323Z,4.43
2018-09-18T17:09:11.591Z,3.77
2018-09-18T17:11:40.106Z,4.87
2018-09-18T17:14:08.157Z,3.47
2018-09-18T17:16:36.268Z,5.47
2018-09-18T17:19:07.006Z,4.63
2018-09-18T17:21:35.123Z,3.70
2018-09-18T17:24:03.237Z,3.23
2018-09-18T17:26:31.378Z,11.63
2018-09-18T17:28:59.768Z,3.00
2018-09-18T17:31:27.865Z,5.90
2018-09-18T17:33:56.004Z,9.20
2018-09-18T17:36:24.291Z,3.37
2018-09-18T17:38:52.829Z,3.87
2018-09-18T17:41:21.521Z,4.13
2018-09-18T17:43:50.739Z,3.73
2018-09-18T17:46:19.176Z,3.57
2018-09-18T17:48:47.722Z,4.60
2018-09-18T17:51:16.237Z,3.13
2018-09-18T17:53:44.964Z,2.37
2018-09-18T17:56:13.824Z,4.27
2018-09-18T17:58:42.308Z,7.47
2018-09-18T18:01:10.726Z,2.83
2018-09-18T18:03:38.942Z,3.80
2018-09-18T18:06:07.180Z,4.80
2018-09-18T18:08:36.059Z,4.30
2018-09-18T18:11:04.304Z,57.33
2018-09-18T18:13:32.402Z,56.67
2018-09-18T18:16:01.237Z,17.13
2018-09-18T18:18:29.839Z,6.40
2018-09-18T18:20:58.198Z,4.60
2018-09-18T18:23:26.397Z,6.30
2018-09-18T18:25:55.079Z,2.80
2018-09-18T18:28:24.907Z,7.90
2018-09-18T18:30:53.761Z,4.67
2018-09-18T18:33:22.806Z,6.00
2018-09-18T18:35:52.723Z,3.50
2018-09-18T18:38:21.623Z,3.83
2018-09-18T18:40:49.918Z,4.20
2018-09-18T18:43:18.148Z,3.57
2018-09-18T18:45:46.304Z,4.20
2018-09-18T18:48:14.947Z,2.50
2018-09-18T18:50:46.597Z,2.00
2018-09-18T18:53:14.846Z,4.03
2018-09-18T18:55:43.105Z,1.60
2018-09-18T18:58:11.261Z,1.50
2018-09-18T19:00:39.602Z,1.43
2018-09-18T19:03:07.906Z,2.73
2018-09-18T19:05:36.093Z,3.23
2018-09-18T19:08:04.329Z,1.73
2018-09-18T19:10:32.629Z,24.27
2018-09-18T19:13:00.800Z,6.17
2018-09-18T19:15:28.940Z,6.70
2018-09-18T19:17:57.231Z,1.70
2018-09-18T19:20:25.386Z,1.40
2018-09-18T19:22:53.481Z,1.53
2018-09-18T19:25:21.750Z,2.40
2018-09-18T19:27:49.963Z,2.37
2018-09-18T19:30:18.200Z,2.27
2018-09-18T19:32:46.325Z,6.20
2018-09-18T19:35:15.835Z,1.70
2018-09-18T19:37:44.098Z,2.23
2018-09-18T19:40:12.450Z,16.13
2018-09-18T19:42:40.651Z,4.30
2018-09-18T19:45:08.803Z,2.10
2018-09-18T19:47:36.966Z,2.90
2018-09-18T19:50:08.144Z,9.50
2018-09-18T19:52:36.478Z,2.00
2018-09-18T19:55:04.711Z,10.10
2018-09-18T19:57:33.569Z,5.30
2018-09-18T20:00:01.801Z,6.50
2018-09-18T20:02:29.867Z,2.70
2018-09-18T20:04:57.937Z,2.30
2018-09-18T20:07:26.021Z,1.50
2018-09-18T20:09:54.092Z,2.67
2018-09-18T20:12:22.233Z,2.20
2018-09-18T20:14:50.339Z,3.10
2018-09-18T20:17:18.349Z,1.80
2018-09-18T20:19:46.443Z,1.53
2018-09-18T20:22:14.493Z,2.10
2018-09-18T20:24:42.588Z,1.90
2018-09-18T20:27:10.666Z,1.70
2018-09-18T20:29:38.795Z,1.20
2018-09-18T20:32:06.839Z,1.73
2018-09-18T20:34:34.915Z,1.43
2018-09-18T20:37:03.017Z,2.33
2018-09-18T20:39:31.099Z,2.10
2018-09-18T20:41:59.223Z,2.20
2018-09-18T20:44:27.394Z,3.83
2018-09-18T20:46:55.889Z,3.97
2018-09-18T20:49:24.061Z,1.00
2018-09-18T20:51:52.250Z,3.47
2018-09-18T20:54:20.366Z,1.50
2018-09-18T20:56:48.479Z,3.17
2018-09-18T20:59:16.573Z,11.00
2018-09-18T21:01:44.688Z,2.20
2018-09-18T21:04:12.773Z,2.20
2018-09-18T21:06:40.875Z,2.33
2018-09-18T21:09:09.819Z,1.97
2018-09-18T21:11:38.160Z,1.90
2018-09-18T21:14:06.808Z,4.57
2018-09-18T21:16:35.494Z,3.50
2018-09-18T21:19:03.555Z,3.77
2018-09-18T21:21:31.619Z,2.67
2018-09-18T21:23:59.777Z,1.23
2018-09-18T21:26:27.951Z,1.63
2018-09-18T21:28:56.156Z,3.40
2018-09-18T21:31:24.296Z,1.30
2018-09-18T21:33:52.405Z,1.33
2018-09-18T21:36:20.591Z,1.57
2018-09-18T21:38:48.740Z,1.43
2018-09-18T21:41:16.960Z,1.43
2018-09-18T21:43:45.202Z,1.00
2018-09-18T21:46:13.429Z,1.17
2018-09-18T21:48:41.629Z,1.00
2018-09-18T21:51:09.803Z,2.63
2018-09-18T21:53:37.976Z,1.30
2018-09-18T21:56:06.156Z,3.23
2018-09-18T21:58:34.322Z,1.00
2018-09-18T22:01:03.623Z,2.50
2018-09-18T22:03:31.812Z,1.50
2018-09-18T22:05:59.988Z,1.30
2018-09-18T22:08:28.132Z,1.50
2018-09-18T22:10:56.320Z,1.20
2018-09-18T22:13:24.437Z,5.10
2018-09-18T22:15:52.571Z,1.73
2018-09-18T22:18:20.673Z,1.40
2018-09-18T22:20:48.828Z,2.90
2018-09-18T22:23:16.923Z,1.20
2018-09-18T22:25:45.051Z,2.13
2018-09-18T22:28:13.197Z,1.50
2018-09-18T22:30:41.325Z,1.30
2018-09-18T22:33:09.422Z,2.60
2018-09-18T22:35:37.491Z,1.27
2018-09-18T22:38:05.929Z,1.33
2018-09-18T22:40:34.097Z,3.60
2018-09-18T22:43:02.272Z,1.70
2018-09-18T22:45:30.406Z,1.93
2018-09-18T22:47:58.469Z,1.73
2018-09-18T22:50:26.626Z,2.10
2018-09-18T22:52:54.728Z,5.37
2018-09-18T22:55:22.768Z,1.50
2018-09-18T22:57:50.864Z,1.33
2018-09-18T23:00:19.014Z,11.97
2018-09-18T23:02:47.109Z,1.90
2018-09-18T23:05:15.219Z,2.30
2018-09-18T23:07:43.347Z,4.73
2018-09-18T23:10:11.446Z,3.60
2018-09-18T23:12:39.525Z,1.40
2018-09-18T23:15:07.618Z,1.40
2018-09-18T23:17:35.704Z,2.53
2018-09-18T23:20:03.878Z,1.50
2018-09-18T23:22:31.994Z,1.83
2018-09-18T23:25:00.120Z,2.50
2018-09-18T23:27:28.189Z,1.60
2018-09-18T23:29:56.313Z,1.77
2018-09-18T23:32:24.401Z,5.10
2018-09-18T23:34:52.735Z,1.73
2018-09-18T23:37:20.886Z,2.23
2018-09-18T23:39:49.273Z,3.10
2018-09-18T23:42:17.444Z,2.10
2018-09-18T23:44:45.468Z,6.20
2018-09-18T23:47:13.539Z,3.40
2018-09-18T23:49:41.678Z,3.83
2018-09-18T23:52:09.820Z,2.50
2018-09-18T23:54:37.917Z,1.77
2018-09-18T23:57:05.976Z,2.30
2018-09-18T23:59:34.147Z,5.30
